Time;durP1;ratioP1;P1;durP2;ratioP2;P2;SDS_P1;SDS_P2;PMS_P1;PMS_P2;Temp;Humidity;BMP_temperature;BMP_pressure;BME280_temperature;BME280_humidity;BME280_pressure;Samples;Min_cycle;Max_cycle;Signal;HPM_P1;HPM_P2
2021/12/01 00:00:17;;;;;;;;;;;9.60;99.90;;;;;;5032147;28;19940;-76
2021/12/01 00:02:43;;;;;;;;;;;9.60;99.90;;;;;;5048315;28;20012;-79
2021/12/01 00:05:09;;;;;;;;;;;9.70;99.90;;;;;;5044574;28;20282;-76
2021/12/01 00:07:36;;;;;;;;;;;9.70;99.90;;;;;;5030955;28;19913;-83
2021/12/01 00:10:08;;;;;;;;;;;9.70;99.90;;;;;;5028624;28;19913;-77
2021/12/01 00:12:33;;;;;;;;;;;9.70;99.90;;;;;;5044537;28;20003;-75
2021/12/01 00:14:59;;;;;;;;;;;9.70;99.90;;;;;;5044835;28;20008;-76
2021/12/01 00:17:25;;;;;;;;;;;9.70;99.90;;;;;;5045078;28;19913;-85
2021/12/01 00:19:51;;;;;;;;;;;9.70;99.90;;;;;;5047302;28;20381;-83
2021/12/01 00:22:17;;;;;;;;;;;9.80;99.90;;;;;;5050346;28;20007;-75
2021/12/01 00:24:43;;;;;;;;;;;9.80;99.90;;;;;;5050161;28;19913;-82
2021/12/01 00:27:08;;;;;;;;;;;9.80;99.90;;;;;;5043840;28;19923;-81
2021/12/01 00:29:34;;;;;;;;;;;9.80;99.90;;;;;;5046302;28;20003;-76
2021/12/01 00:31:59;;;;;;;;;;;9.70;99.90;;;;;;5049489;28;19917;-77
2021/12/01 00:34:25;;;;;;;;;;;9.80;99.90;;;;;;5050304;28;19919;-76
2021/12/01 00:36:51;;;;;;;;;;;9.80;99.90;;;;;;5048335;28;19921;-75
2021/12/01 00:39:16;;;;;;;;;;;9.80;99.90;;;;;;5038016;28;20056;-76
2021/12/01 00:41:42;;;;;;;;;;;9.80;99.90;;;;;;5049855;28;19920;-77
2021/12/01 00:44:09;;;;;;;;;;;9.80;99.90;;;;;;5035019;28;19962;-78
2021/12/01 00:46:41;;;;;;;;;;;9.80;99.90;;;;;;5044373;28;19914;-77
2021/12/01 00:49:07;;;;;;;;;;;9.80;99.90;;;;;;5045058;28;19920;-79
2021/12/01 00:51:32;;;;;;;;;;;9.80;99.90;;;;;;5045760;28;19913;-77
2021/12/01 00:53:58;;;;;;;;;;;9.80;99.90;;;;;;5048424;28;19913;-82
2021/12/01 00:56:23;;;;;;;;;;;9.80;99.90;;;;;;5040332;28;19913;-76
2021/12/01 00:58:50;;;;;;;;;;;9.80;99.90;;;;;;5042693;28;19923;-75
2021/12/01 01:01:16;;;;;;;;;;;9.80;99.90;;;;;;5045273;28;19971;-76
2021/12/01 01:03:41;;;;;;;;;;;9.80;99.90;;;;;;5023965;28;19917;-75
2021/12/01 01:06:08;;;;;;;;;;;9.80;99.90;;;;;;5054177;28;19960;-87
2021/12/01 01:08:34;;;;;;;;;;;9.80;99.90;;;;;;5055342;28;20503;-94
2021/12/01 01:16:23;;;;;;;;;;;9.90;99.90;;;;;;5055610;28;20248;-90
2021/12/01 01:18:54;;;;;;;;;;;9.90;99.90;;;;;;5052735;28;20396;-77
2021/12/01 01:21:20;;;;;;;;;;;10.00;99.90;;;;;;5053628;28;20401;-76
2021/12/01 01:23:46;;;;;;;;;;;10.00;99.90;;;;;;5054741;28;20308;-86
2021/12/01 01:26:14;;;;;;;;;;;10.00;99.90;;;;;;5056014;28;19966;-87
2021/12/01 01:28:40;;;;;;;;;;;10.00;99.90;;;;;;5049934;28;19955;-76
2021/12/01 01:31:06;;;;;;;;;;;10.00;99.90;;;;;;5049339;28;19995;-83
2021/12/01 01:33:31;;;;;;;;;;;10.00;99.90;;;;;;5054984;28;19917;-87
2021/12/01 01:35:57;;;;;;;;;;;10.00;99.90;;;;;;5052892;28;20224;-85
2021/12/01 01:38:23;;;;;;;;;;;10.00;99.90;;;;;;5045849;28;19912;-83
2021/12/01 01:40:49;;;;;;;;;;;9.90;99.90;;;;;;5038004;28;19917;-85
2021/12/01 01:43:15;;;;;;;;;;;9.90;99.90;;;;;;5055650;28;19909;-77
2021/12/01 01:45:40;;;;;;;;;;;9.90;99.90;;;;;;5036891;28;19916;-90
2021/12/01 01:48:10;;;;;;;;;;;9.90;99.90;;;;;;5041083;28;20012;-76
2021/12/01 01:50:38;;;;;;;;;;;9.90;99.90;;;;;;5046429;28;19917;-84
2021/12/01 01:53:03;;;;;;;;;;;9.90;99.90;;;;;;5037146;28;19909;-77
2021/12/01 01:55:29;;;;;;;;;;;9.80;99.90;;;;;;5055206;28;20331;-84
2021/12/01 01:57:55;;;;;;;;;;;9.90;99.90;;;;;;5037904;28;20212;-87
2021/12/01 02:00:22;;;;;;;;;;;9.80;99.90;;;;;;5056304;28;20315;-92
2021/12/01 02:02:48;;;;;;;;;;;9.80;99.90;;;;;;5055112;28;20000;-90
2021/12/01 02:05:16;;;;;;;;;;;9.80;99.90;;;;;;5047712;28;19959;-92
2021/12/01 02:07:43;;;;;;;;;;;9.80;99.90;;;;;;5034803;28;20008;-86
2021/12/01 02:10:09;;;;;;;;;;;9.80;99.90;;;;;;5032844;28;19913;-86
2021/12/01 02:12:37;;;;;;;;;;;9.80;99.90;;;;;;5055506;28;19939;-86
2021/12/01 02:15:03;;;;;;;;;;;9.80;99.90;;;;;;5037252;28;19920;-83
2021/12/01 02:17:28;;;;;;;;;;;9.70;99.90;;;;;;5033453;28;19913;-85
2021/12/01 02:19:55;;;;;;;;;;;9.80;99.90;;;;;;5036727;28;19920;-93
2021/12/01 02:22:21;;;;;;;;;;;9.80;99.90;;;;;;5054120;28;20258;-86
2021/12/01 02:24:47;;;;;;;;;;;9.80;99.90;;;;;;5038213;28;19917;-83
2021/12/01 02:27:15;;;;;;;;;;;9.80;99.90;;;;;;5035694;28;19971;-79
2021/12/01 02:29:41;;;;;;;;;;;9.80;99.90;;;;;;5041023;28;20335;-79
2021/12/01 02:32:07;;;;;;;;;;;9.80;99.90;;;;;;5051532;28;19955;-77
2021/12/01 02:34:38;;;;;;;;;;;9.80;99.90;;;;;;5053562;28;20215;-79
2021/12/01 02:37:05;;;;;;;;;;;9.90;99.90;;;;;;5050923;28;19928;-90
2021/12/01 02:39:32;;;;;;;;;;;9.90;99.90;;;;;;5042022;28;19919;-86
2021/12/01 02:42:05;;;;;;;;;;;9.90;99.90;;;;;;5058722;28;20304;-77
2021/12/01 02:44:36;;;;;;;;;;;9.90;99.90;;;;;;5053632;28;19928;-78
2021/12/01 02:47:02;;;;;;;;;;;9.90;99.90;;;;;;5057639;28;19919;-78
2021/12/01 02:49:28;;;;;;;;;;;9.90;99.90;;;;;;5057460;28;20046;-76
2021/12/01 02:51:56;;;;;;;;;;;9.90;99.90;;;;;;5055906;28;20007;-78
2021/12/01 02:54:22;;;;;;;;;;;9.90;99.90;;;;;;5031035;28;19913;-78
2021/12/01 02:56:49;;;;;;;;;;;9.90;99.90;;;;;;5039344;28;20215;-78
2021/12/01 02:59:15;;;;;;;;;;;9.90;99.90;;;;;;5057166;28;19913;-90
2021/12/01 03:01:41;;;;;;;;;;;9.80;99.90;;;;;;5039583;28;19921;-76
2021/12/01 03:04:07;;;;;;;;;;;9.80;99.90;;;;;;5057477;28;19941;-77
2021/12/01 03:06:35;;;;;;;;;;;9.80;99.90;;;;;;5056500;28;19963;-78
2021/12/01 03:09:00;;;;;;;;;;;9.80;99.90;;;;;;5051965;28;19959;-78
2021/12/01 03:11:27;;;;;;;;;;;9.80;99.90;;;;;;5039567;28;19917;-77
2021/12/01 03:14:07;;;;;;;;;;;9.80;99.90;;;;;;5040410;28;19913;-92
2021/12/01 03:16:34;;;;;;;;;;;9.70;99.90;;;;;;5057200;28;19917;-77
2021/12/01 03:19:00;;;;;;;;;;;9.70;99.90;;;;;;5038630;28;20311;-91
2021/12/01 03:21:26;;;;;;;;;;;9.70;99.90;;;;;;5049056;28;19967;-91
2021/12/01 03:23:51;;;;;;;;;;;9.70;99.90;;;;;;5058697;28;19916;-85
2021/12/01 03:26:19;;;;;;;;;;;9.60;99.90;;;;;;5066467;28;20340;-85
2021/12/01 03:28:46;;;;;;;;;;;9.60;99.90;;;;;;5058827;28;19951;-86
2021/12/01 03:31:11;;;;;;;;;;;9.60;99.90;;;;;;5055096;28;19920;-93
2021/12/01 03:33:38;;;;;;;;;;;9.60;99.90;;;;;;5053809;28;19967;-85
2021/12/01 03:36:04;;;;;;;;;;;9.50;99.90;;;;;;5046439;28;19913;-77
2021/12/01 03:38:30;;;;;;;;;;;9.50;99.90;;;;;;5038432;28;19944;-83
2021/12/01 03:40:57;;;;;;;;;;;9.50;99.90;;;;;;5040491;28;19963;-95
2021/12/01 03:43:23;;;;;;;;;;;9.40;99.90;;;;;;5040021;28;19917;-78
2021/12/01 03:45:49;;;;;;;;;;;9.40;99.90;;;;;;5051828;28;19917;-88
2021/12/01 03:48:15;;;;;;;;;;;9.40;99.90;;;;;;5039002;28;19913;-89
2021/12/01 03:50:41;;;;;;;;;;;9.30;99.90;;;;;;5038250;28;20051;-90
2021/12/01 03:53:06;;;;;;;;;;;9.30;99.90;;;;;;5040008;28;20011;-85
2021/12/01 03:55:34;;;;;;;;;;;9.30;99.90;;;;;;5036025;28;19916;-80
2021/12/01 03:57:59;;;;;;;;;;;9.30;99.90;;;;;;5052053;28;19913;-88
2021/12/01 04:00:25;;;;;;;;;;;9.30;99.90;;;;;;5057292;28;19923;-83
2021/12/01 04:02:50;;;;;;;;;;;9.20;99.90;;;;;;5049713;28;20291;-87
2021/12/01 04:05:16;;;;;;;;;;;9.20;99.90;;;;;;5056187;28;19952;-85
2021/12/01 04:07:42;;;;;;;;;;;9.20;99.90;;;;;;5050346;28;19917;-78
2021/12/01 04:10:11;;;;;;;;;;;9.10;99.90;;;;;;5038740;28;19913;-81
2021/12/01 04:12:37;;;;;;;;;;;9.10;99.90;;;;;;5056729;28;19913;-89
2021/12/01 04:15:04;;;;;;;;;;;9.10;99.90;;;;;;5035989;28;19928;-82
2021/12/01 04:17:29;;;;;;;;;;;9.10;99.90;;;;;;5028857;28;19932;-82
2021/12/01 04:19:55;;;;;;;;;;;9.00;99.90;;;;;;5032593;28;19928;-87
2021/12/01 04:22:20;;;;;;;;;;;9.00;99.90;;;;;;5055081;28;19917;-78
2021/12/01 04:24:46;;;;;;;;;;;9.00;99.90;;;;;;5055351;28;19924;-76
2021/12/01 04:27:12;;;;;;;;;;;9.00;99.90;;;;;;5036089;28;19920;-79
2021/12/01 04:29:38;;;;;;;;;;;9.00;99.90;;;;;;5039618;28;19913;-75
2021/12/01 04:32:05;;;;;;;;;;;8.90;99.90;;;;;;5053943;28;19917;-76
2021/12/01 04:34:30;;;;;;;;;;;8.90;99.90;;;;;;5037355;28;20185;-87
2021/12/01 04:37:01;;;;;;;;;;;8.90;99.90;;;;;;5052208;28;19912;-91
2021/12/01 04:39:27;;;;;;;;;;;8.90;99.90;;;;;;5055935;28;19935;-79
2021/12/01 04:42:03;;;;;;;;;;;8.90;99.90;;;;;;5055662;28;20320;-83
2021/12/01 04:44:30;;;;;;;;;;;8.80;99.90;;;;;;5055727;28;19920;-88
2021/12/01 04:46:57;;;;;;;;;;;8.80;99.90;;;;;;5053387;28;19959;-88
2021/12/01 04:49:24;;;;;;;;;;;8.80;99.90;;;;;;5051108;28;20366;-89
2021/12/01 04:51:55;;;;;;;;;;;8.80;99.90;;;;;;5050174;28;19917;-81
2021/12/01 04:54:25;;;;;;;;;;;8.80;99.90;;;;;;5038574;28;19962;-89
2021/12/01 04:56:51;;;;;;;;;;;8.80;99.90;;;;;;5056384;28;19913;-90
2021/12/01 04:59:17;;;;;;;;;;;8.80;99.90;;;;;;5038221;28;19920;-88
2021/12/01 05:01:43;;;;;;;;;;;8.80;99.90;;;;;;5056361;28;19924;-89
2021/12/01 05:04:10;;;;;;;;;;;8.80;99.90;;;;;;5038448;28;19913;-93
2021/12/01 05:06:36;;;;;;;;;;;8.70;99.90;;;;;;5037948;28;19916;-84
2021/12/01 05:09:02;;;;;;;;;;;8.70;99.90;;;;;;5046365;28;19924;-93
2021/12/01 05:11:32;;;;;;;;;;;8.70;99.90;;;;;;5037595;28;19913;-89
2021/12/01 05:14:00;;;;;;;;;;;8.70;99.90;;;;;;5036939;28;19952;-89
2021/12/01 05:16:25;;;;;;;;;;;8.70;99.90;;;;;;5055569;28;19920;-82
2021/12/01 05:18:51;;;;;;;;;;;8.70;99.90;;;;;;5055059;28;19920;-83
2021/12/01 05:21:17;;;;;;;;;;;8.70;99.90;;;;;;5035324;28;19978;-87
2021/12/01 05:23:42;;;;;;;;;;;8.70;99.90;;;;;;5037872;28;19913;-81
2021/12/01 05:26:10;;;;;;;;;;;8.60;99.90;;;;;;5053746;28;19920;-86
2021/12/01 05:28:36;;;;;;;;;;;8.70;99.90;;;;;;5031823;28;19920;-76
2021/12/01 05:31:01;;;;;;;;;;;8.70;99.90;;;;;;5049381;28;19916;-91
2021/12/01 05:33:27;;;;;;;;;;;8.70;99.90;;;;;;5051396;28;19920;-89
2021/12/01 05:35:53;;;;;;;;;;;8.70;99.90;;;;;;5056203;28;19912;-87
2021/12/01 05:38:18;;;;;;;;;;;8.70;99.90;;;;;;5047579;28;19940;-84
2021/12/01 05:40:47;;;;;;;;;;;8.60;99.90;;;;;;5053165;28;19966;-91
2021/12/01 05:43:16;;;;;;;;;;;8.60;99.90;;;;;;5037041;28;19917;-83
2021/12/01 05:45:41;;;;;;;;;;;8.60;99.90;;;;;;5037972;28;20560;-87
2021/12/01 05:48:08;;;;;;;;;;;8.60;99.90;;;;;;5032869;28;19913;-85
2021/12/01 05:50:34;;;;;;;;;;;8.60;99.90;;;;;;5036769;28;19921;-88
2021/12/01 05:52:59;;;;;;;;;;;8.60;99.90;;;;;;5037656;28;19966;-91
2021/12/01 05:55:28;;;;;;;;;;;8.60;99.90;;;;;;5050898;28;19924;-78
2021/12/01 05:57:59;;;;;;;;;;;8.60;99.90;;;;;;5036282;28;19913;-85
2021/12/01 06:00:26;;;;;;;;;;;8.60;99.90;;;;;;5053636;28;19960;-95
2021/12/01 06:02:52;;;;;;;;;;;8.70;99.90;;;;;;5033642;28;20405;-86
2021/12/01 06:05:18;;;;;;;;;;;8.60;99.90;;;;;;5032407;28;19966;-83
2021/12/01 06:07:47;;;;;;;;;;;8.70;99.90;;;;;;5053838;28;19920;-88
2021/12/01 06:10:13;;;;;;;;;;;8.60;99.90;;;;;;5053934;28;19923;-84
2021/12/01 06:12:40;;;;;;;;;;;8.70;99.90;;;;;;5052318;28;20311;-88
2021/12/01 06:15:10;;;;;;;;;;;8.70;99.90;;;;;;5050044;28;19912;-86
2021/12/01 06:17:36;;;;;;;;;;;8.70;99.90;;;;;;5054260;28;20300;-86
2021/12/01 06:20:03;;;;;;;;;;;8.70;99.90;;;;;;5056551;28;19932;-88
2021/12/01 06:22:29;;;;;;;;;;;8.70;99.90;;;;;;5055643;28;19913;-84
2021/12/01 06:24:54;;;;;;;;;;;8.70;99.90;;;;;;5042559;28;19943;-87
2021/12/01 06:27:20;;;;;;;;;;;8.70;99.90;;;;;;5056661;28;19935;-76
2021/12/01 06:29:45;;;;;;;;;;;8.70;99.90;;;;;;5041127;28;19956;-84
2021/12/01 06:32:11;;;;;;;;;;;8.70;99.90;;;;;;5055095;28;20320;-88
2021/12/01 06:34:36;;;;;;;;;;;8.70;99.90;;;;;;5056003;28;20267;-88
2021/12/01 06:37:02;;;;;;;;;;;8.70;99.90;;;;;;5058793;28;19917;-89
2021/12/01 06:39:28;;;;;;;;;;;8.70;99.90;;;;;;5053764;28;19916;-94
2021/12/01 06:41:54;;;;;;;;;;;8.70;99.90;;;;;;5057073;28;19924;-93
2021/12/01 06:44:20;;;;;;;;;;;8.80;99.90;;;;;;5041375;28;19917;-93
2021/12/01 06:46:46;;;;;;;;;;;8.70;99.90;;;;;;5039375;28;19921;-87
2021/12/01 06:49:27;;;;;;;;;;;8.80;99.90;;;;;;5059423;28;20231;-91
2021/12/01 06:51:52;;;;;;;;;;;8.80;99.90;;;;;;5055787;28;19916;-81
2021/12/01 06:54:18;;;;;;;;;;;8.80;99.90;;;;;;5041523;28;20189;-85
2021/12/01 06:56:44;;;;;;;;;;;8.80;99.90;;;;;;5051959;28;19958;-91
2021/12/01 06:59:09;;;;;;;;;;;8.80;99.90;;;;;;5046942;28;19913;-89
2021/12/01 07:01:35;;;;;;;;;;;8.80;99.90;;;;;;5036886;28;20227;-82
2021/12/01 07:04:01;;;;;;;;;;;8.80;99.90;;;;;;5047635;28;19917;-82
2021/12/01 07:06:26;;;;;;;;;;;8.80;99.90;;;;;;5056963;28;19935;-82
2021/12/01 07:08:52;;;;;;;;;;;8.80;99.90;;;;;;5039429;28;19924;-76
2021/12/01 07:11:18;;;;;;;;;;;8.80;99.90;;;;;;5039060;28;20339;-83
2021/12/01 07:13:43;;;;;;;;;;;8.80;99.90;;;;;;5048233;28;19916;-80
2021/12/01 07:16:09;;;;;;;;;;;8.80;99.90;;;;;;5043831;23;19929;-81
2021/12/01 07:18:35;;;;;;;;;;;8.80;99.90;;;;;;5037030;28;19917;-85
2021/12/01 07:21:00;;;;;;;;;;;8.80;99.90;;;;;;5050927;28;19916;-91
2021/12/01 07:23:26;;;;;;;;;;;8.80;99.90;;;;;;5050642;28;19908;-85
2021/12/01 07:25:51;;;;;;;;;;;8.90;99.90;;;;;;5036948;28;19913;-86
2021/12/01 07:28:17;;;;;;;;;;;8.90;99.90;;;;;;5036766;28;19953;-82
2021/12/01 07:30:43;;;;;;;;;;;8.90;99.90;;;;;;5053291;28;20587;-94
2021/12/01 07:33:10;;;;;;;;;;;8.90;99.90;;;;;;5031165;28;19963;-91
2021/12/01 07:35:35;;;;;;;;;;;8.90;99.90;;;;;;5046328;28;19917;-94
2021/12/01 07:38:01;;;;;;;;;;;8.90;99.90;;;;;;5049058;28;19959;-90
2021/12/01 07:40:27;;;;;;;;;;;8.90;99.90;;;;;;5050859;28;19913;-83
2021/12/01 07:42:53;;;;;;;;;;;9.00;99.90;;;;;;5050002;28;19986;-87
2021/12/01 07:45:19;;;;;;;;;;;9.00;99.90;;;;;;5035645;28;19910;-91
2021/12/01 07:47:44;;;;;;;;;;;9.00;99.90;;;;;;5048203;28;19940;-90
2021/12/01 07:50:11;;;;;;;;;;;9.00;99.90;;;;;;5049268;28;19917;-86
2021/12/01 07:52:38;;;;;;;;;;;9.10;99.90;;;;;;5032208;28;19916;-89
2021/12/01 07:55:04;;;;;;;;;;;9.10;99.90;;;;;;5051626;28;19997;-89
2021/12/01 07:57:30;;;;;;;;;;;9.00;99.90;;;;;;5046458;28;20002;-82
2021/12/01 07:59:55;;;;;;;;;;;8.80;99.90;;;;;;5033839;28;20082;-82
2021/12/01 08:02:21;;;;;;;;;;;8.80;99.90;;;;;;5033509;28;20362;-83
2021/12/01 08:04:46;;;;;;;;;;;8.70;99.90;;;;;;5051842;28;20303;-83
2021/12/01 08:07:12;;;;;;;;;;;8.60;99.90;;;;;;5035169;28;20219;-83
2021/12/01 08:09:38;;;;;;;;;;;8.60;99.90;;;;;;5051634;28;20023;-82
2021/12/01 08:12:03;;;;;;;;;;;8.60;99.90;;;;;;5050169;28;20656;-81
2021/12/01 08:14:29;;;;;;;;;;;8.50;99.90;;;;;;5028552;28;19917;-83
2021/12/01 08:16:54;;;;;;;;;;;8.50;99.90;;;;;;5046597;28;20223;-83
2021/12/01 08:19:21;;;;;;;;;;;8.50;99.90;;;;;;5046204;28;19928;-86
2021/12/01 08:21:49;;;;;;;;;;;8.50;99.90;;;;;;5045966;28;20007;-88
2021/12/01 08:24:15;;;;;;;;;;;8.50;99.90;;;;;;5048800;28;19917;-83
2021/12/01 08:26:41;;;;;;;;;;;8.50;99.90;;;;;;5052454;28;19915;-90
2021/12/01 08:29:07;;;;;;;;;;;8.60;99.90;;;;;;5048636;28;19971;-81
2021/12/01 08:31:32;;;;;;;;;;;8.60;99.90;;;;;;5054756;28;19913;-86
2021/12/01 08:33:58;;;;;;;;;;;8.60;99.90;;;;;;5033212;28;19913;-87
2021/12/01 08:36:24;;;;;;;;;;;8.60;99.90;;;;;;5056140;28;20300;-80
2021/12/01 08:38:49;;;;;;;;;;;8.50;99.90;;;;;;5053496;28;20292;-85
2021/12/01 08:41:15;;;;;;;;;;;8.50;99.90;;;;;;5051906;28;19964;-86
2021/12/01 08:43:40;;;;;;;;;;;8.50;99.90;;;;;;5034278;28;20014;-85
2021/12/01 08:46:06;;;;;;;;;;;8.60;99.90;;;;;;5047397;28;19920;-83
2021/12/01 08:48:32;;;;;;;;;;;8.60;99.90;;;;;;5055283;28;20324;-87
2021/12/01 08:51:01;;;;;;;;;;;8.60;99.90;;;;;;5059200;23;19931;-86
2021/12/01 08:53:27;;;;;;;;;;;8.60;99.90;;;;;;5053635;28;19969;-87
2021/12/01 08:55:53;;;;;;;;;;;8.70;99.90;;;;;;5054141;28;20339;-90
2021/12/01 08:58:19;;;;;;;;;;;8.70;99.90;;;;;;5035732;28;19920;-86
2021/12/01 09:00:45;;;;;;;;;;;8.70;99.90;;;;;;5038759;28;19924;-95
2021/12/01 09:03:11;;;;;;;;;;;8.80;99.90;;;;;;5035785;28;19917;-85
2021/12/01 09:05:37;;;;;;;;;;;8.80;99.90;;;;;;5053639;28;20220;-84
2021/12/01 09:08:06;;;;;;;;;;;8.70;99.90;;;;;;5036742;28;19913;-87
2021/12/01 09:10:32;;;;;;;;;;;8.70;99.90;;;;;;5052683;28;19924;-90
2021/12/01 09:12:58;;;;;;;;;;;8.60;99.90;;;;;;5055427;28;19913;-88
2021/12/01 09:15:24;;;;;;;;;;;8.60;99.90;;;;;;5054303;28;20505;-89
2021/12/01 09:17:49;;;;;;;;;;;8.50;99.90;;;;;;5034180;28;19920;-89
2021/12/01 09:20:15;;;;;;;;;;;8.50;99.90;;;;;;5038603;28;19923;-80
2021/12/01 09:22:41;;;;;;;;;;;8.40;99.90;;;;;;5038271;28;19916;-89
2021/12/01 09:25:07;;;;;;;;;;;8.40;99.90;;;;;;5054599;28;19917;-88
2021/12/01 09:27:32;;;;;;;;;;;8.40;99.90;;;;;;5049444;28;19917;-91
2021/12/01 09:29:58;;;;;;;;;;;8.40;99.90;;;;;;5049879;28;20273;-89
2021/12/01 09:32:24;;;;;;;;;;;8.30;99.90;;;;;;5051787;28;19920;-87
2021/12/01 09:34:49;;;;;;;;;;;8.30;99.90;;;;;;5052703;28;19923;-85
2021/12/01 09:37:16;;;;;;;;;;;8.30;99.90;;;;;;5056693;28;19920;-79
2021/12/01 09:39:42;;;;;;;;;;;8.40;99.90;;;;;;5033249;28;19913;-86
2021/12/01 09:42:08;;;;;;;;;;;8.40;99.90;;;;;;5055038;28;19917;-82
2021/12/01 09:44:35;;;;;;;;;;;8.40;99.90;;;;;;5024348;28;19964;-84
2021/12/01 09:47:01;;;;;;;;;;;8.40;99.90;;;;;;5055137;28;19920;-89
2021/12/01 09:49:26;;;;;;;;;;;8.40;99.90;;;;;;5044492;28;19913;-92
2021/12/01 09:51:52;;;;;;;;;;;8.40;99.90;;;;;;5050579;28;19928;-86
2021/12/01 09:54:18;;;;;;;;;;;8.40;99.90;;;;;;5036988;28;19927;-89
2021/12/01 09:56:43;;;;;;;;;;;8.40;99.90;;;;;;5036389;28;19920;-87
2021/12/01 09:59:09;;;;;;;;;;;8.40;99.90;;;;;;5053733;28;19917;-75
2021/12/01 10:01:35;;;;;;;;;;;8.40;99.90;;;;;;5054302;28;19932;-78
2021/12/01 10:04:00;;;;;;;;;;;8.40;99.90;;;;;;5035169;28;19949;-77
2021/12/01 10:06:26;;;;;;;;;;;8.50;99.90;;;;;;5035208;28;20296;-78
2021/12/01 10:08:53;;;;;;;;;;;8.50;99.90;;;;;;5033340;28;19920;-88
2021/12/01 10:11:21;;;;;;;;;;;8.50;99.90;;;;;;5051007;28;20031;-91
2021/12/01 10:13:52;;;;;;;;;;;8.60;99.90;;;;;;5049885;28;19917;-90
2021/12/01 10:16:18;;;;;;;;;;;8.60;99.90;;;;;;5047053;28;19921;-86
2021/12/01 10:19:04;;;;;;;;;;;8.60;99.90;;;;;;5051673;28;19917;-88
2021/12/01 10:21:34;;;;;;;;;;;8.70;99.90;;;;;;5035119;28;19959;-87
2021/12/01 10:24:06;;;;;;;;;;;8.70;99.90;;;;;;5053240;28;20529;-85
2021/12/01 10:26:33;;;;;;;;;;;8.70;99.90;;;;;;5052592;28;20000;-76
2021/12/01 10:29:05;;;;;;;;;;;8.70;99.90;;;;;;5048073;28;19924;-90
2021/12/01 10:31:44;;;;;;;;;;;8.70;99.90;;;;;;5038660;28;19919;-75
2021/12/01 10:34:14;;;;;;;;;;;8.70;99.90;;;;;;5060864;28;19928;-77
2021/12/01 10:36:39;;;;;;;;;;;8.70;99.90;;;;;;5053512;28;19921;-84
2021/12/01 10:39:05;;;;;;;;;;;8.70;99.90;;;;;;5091217;23;20282;-89
2021/12/01 10:41:36;;;;;;;;;;;8.70;99.90;;;;;;5093101;28;19916;-83
2021/12/01 10:44:28;;;;;;;;;;;8.80;99.90;;;;;;5083229;22;20328;-85
2021/12/01 10:46:54;;;;;;;;;;;8.70;99.90;;;;;;5014465;28;20752;-90
2021/12/01 10:49:37;;;;;;;;;;;8.70;99.90;;;;;;5002974;28;19918;-89
2021/12/01 10:52:02;;;;;;;;;;;8.60;99.90;;;;;;4998544;28;19953;-94
2021/12/01 10:54:28;;;;;;;;;;;8.60;99.90;;;;;;5014108;28;20245;-85
2021/12/01 10:57:12;;;;;;;;;;;8.60;99.90;;;;;;5011898;28;19913;-82
2021/12/01 10:59:44;;;;;;;;;;;8.50;99.90;;;;;;5001573;28;19918;-78
2021/12/01 11:02:11;;;;;;;;;;;8.60;99.90;;;;;;4983571;28;19921;-95
2021/12/01 11:04:49;;;;;;;;;;;8.60;99.90;;;;;;5011090;28;20351;-77
2021/12/01 11:07:28;;;;;;;;;;;8.50;99.90;;;;;;5013643;28;20334;-88
2021/12/01 11:10:14;;;;;;;;;;;8.50;99.90;;;;;;5016714;28;19920;-93
2021/12/01 11:12:40;;;;;;;;;;;8.50;99.90;;;;;;5006975;28;20206;-90
2021/12/01 11:15:16;;;;;;;;;;;8.40;99.90;;;;;;5013474;28;20232;-91
2021/12/01 11:17:42;;;;;;;;;;;8.50;99.90;;;;;;5007965;28;19965;-89
2021/12/01 11:20:08;;;;;;;;;;;8.50;99.90;;;;;;5009187;28;20024;-82
2021/12/01 11:22:36;;;;;;;;;;;8.50;99.90;;;;;;5011247;28;19993;-83
2021/12/01 11:25:19;;;;;;;;;;;8.60;99.90;;;;;;5057124;28;21242;-86
2021/12/01 11:27:45;;;;;;;;;;;8.60;99.90;;;;;;5056813;28;20012;-89
2021/12/01 11:30:10;;;;;;;;;;;8.60;99.90;;;;;;5038120;28;19916;-85
2021/12/01 11:32:37;;;;;;;;;;;8.60;99.90;;;;;;5055809;28;20231;-85
2021/12/01 11:35:03;;;;;;;;;;;8.60;99.90;;;;;;5034693;28;20007;-83
2021/12/01 11:37:29;;;;;;;;;;;8.60;99.90;;;;;;5049066;28;20094;-92
2021/12/01 11:39:56;;;;;;;;;;;8.60;99.90;;;;;;5052597;28;20224;-82
2021/12/01 11:42:22;;;;;;;;;;;8.60;99.90;;;;;;5053218;28;19936;-87
2021/12/01 11:44:51;;;;;;;;;;;8.60;99.90;;;;;;5053511;28;19975;-76
2021/12/01 11:47:17;;;;;;;;;;;8.60;99.90;;;;;;5052005;28;19916;-93
2021/12/01 11:49:43;;;;;;;;;;;8.70;99.90;;;;;;5053570;28;19912;-89
2021/12/01 11:52:09;;;;;;;;;;;8.70;99.90;;;;;;5054092;28;19920;-82
2021/12/01 11:54:41;;;;;;;;;;;8.60;99.90;;;;;;5050920;28;19929;-83
2021/12/01 11:57:08;;;;;;;;;;;8.70;99.90;;;;;;5033406;28;19916;-78
2021/12/01 11:59:38;;;;;;;;;;;8.70;99.90;;;;;;5051800;28;19917;-85
2021/12/01 12:02:03;;;;;;;;;;;8.70;99.90;;;;;;5052757;28;19924;-87
2021/12/01 12:04:30;;;;;;;;;;;8.70;99.90;;;;;;5052542;28;19916;-85
2021/12/01 12:07:07;;;;;;;;;;;8.70;99.90;;;;;;5041756;28;20283;-86
2021/12/01 12:09:33;;;;;;;;;;;8.70;99.90;;;;;;5051955;28;20574;-77
2021/12/01 12:11:59;;;;;;;;;;;8.70;99.90;;;;;;5050986;28;19917;-81
2021/12/01 12:14:27;;;;;;;;;;;8.70;99.90;;;;;;5049291;28;19917;-84
2021/12/01 12:17:05;;;;;;;;;;;8.60;99.90;;;;;;5051822;28;19921;-82
2021/12/01 12:19:43;;;;;;;;;;;8.50;99.90;;;;;;5049915;28;19917;-85
2021/12/01 12:22:14;;;;;;;;;;;8.50;99.90;;;;;;5051442;28;19974;-83
2021/12/01 12:24:46;;;;;;;;;;;8.40;99.90;;;;;;5050607;28;19916;-86
2021/12/01 12:27:31;;;;;;;;;;;8.40;99.90;;;;;;5035416;28;19924;-90
2021/12/01 12:29:59;;;;;;;;;;;8.30;99.90;;;;;;5030255;28;20007;-94
2021/12/01 12:32:29;;;;;;;;;;;8.30;99.90;;;;;;5034064;28;20008;-87
2021/12/01 12:35:14;;;;;;;;;;;8.30;99.90;;;;;;5052944;28;19923;-92
2021/12/01 12:37:41;;;;;;;;;;;8.30;99.90;;;;;;5051890;28;19913;-92
2021/12/01 12:40:19;;;;;;;;;;;8.20;99.90;;;;;;5052636;28;20605;-88
2021/12/01 12:43:03;;;;;;;;;;;8.20;99.90;;;;;;5050912;28;19920;-88
2021/12/01 12:45:29;;;;;;;;;;;8.30;99.90;;;;;;5052600;28;19991;-85
2021/12/01 12:47:54;;;;;;;;;;;8.30;99.90;;;;;;5051830;28;20296;-86
2021/12/01 12:50:22;;;;;;;;;;;8.20;99.90;;;;;;5033470;28;20489;-87
2021/12/01 12:52:48;;;;;;;;;;;8.20;99.90;;;;;;5031060;28;19924;-87
2021/12/01 12:55:19;;;;;;;;;;;8.20;99.90;;;;;;5051861;28;19913;-84
2021/12/01 12:58:14;;;;;;;;;;;8.20;99.90;;;;;;5035046;28;20275;-94
2021/12/01 13:00:52;;;;;;;;;;;8.20;99.90;;;;;;5032071;28;19921;-84
2021/12/01 13:03:24;;;;;;;;;;;8.20;99.90;;;;;;5034973;28;19928;-85
2021/12/01 13:05:50;;;;;;;;;;;8.30;99.90;;;;;;5048835;28;19952;-85
2021/12/01 13:08:35;;;;;;;;;;;8.30;99.90;;;;;;5024574;28;19921;-90
2021/12/01 13:11:10;;;;;;;;;;;8.30;99.90;;;;;;5050230;28;20008;-84
2021/12/01 13:13:40;;;;;;;;;;;8.20;99.90;;;;;;5048992;28;21081;-85
2021/12/01 13:16:07;;;;;;;;;;;8.30;99.90;;;;;;5046838;28;19938;-82
2021/12/01 13:18:34;;;;;;;;;;;8.20;99.90;;;;;;5043223;28;19921;-83
2021/12/01 13:21:03;;;;;;;;;;;8.20;99.90;;;;;;5032506;28;19920;-86
2021/12/01 13:23:32;;;;;;;;;;;8.30;99.90;;;;;;5047228;28;19913;-76
2021/12/01 13:26:01;;;;;;;;;;;8.20;99.90;;;;;;5048672;28;19921;-79
2021/12/01 13:28:26;;;;;;;;;;;8.30;99.90;;;;;;5048203;28;20428;-80
2021/12/01 13:30:53;;;;;;;;;;;8.30;99.90;;;;;;5031024;28;19913;-89
2021/12/01 13:33:19;;;;;;;;;;;8.30;99.90;;;;;;5047564;28;20357;-89
2021/12/01 13:35:45;;;;;;;;;;;8.10;99.90;;;;;;5050700;28;19927;-87
2021/12/01 13:38:11;;;;;;;;;;;8.10;99.90;;;;;;5049595;28;19920;-87
2021/12/01 13:40:38;;;;;;;;;;;8.00;99.90;;;;;;5052128;28;19925;-87
2021/12/01 13:43:17;;;;;;;;;;;8.00;99.90;;;;;;5051046;28;19921;-88
2021/12/01 13:46:00;;;;;;;;;;;7.90;99.90;;;;;;5030260;28;19924;-85
2021/12/01 13:48:25;;;;;;;;;;;7.90;99.90;;;;;;5049411;28;19925;-90
2021/12/01 13:50:51;;;;;;;;;;;7.80;99.90;;;;;;5050613;28;20016;-89
2021/12/01 13:53:17;;;;;;;;;;;7.80;99.90;;;;;;5049826;28;19921;-89
2021/12/01 13:55:43;;;;;;;;;;;7.80;99.90;;;;;;5051870;28;19941;-87
2021/12/01 13:58:08;;;;;;;;;;;7.80;99.90;;;;;;5052034;28;19963;-90
2021/12/01 14:00:35;;;;;;;;;;;7.80;99.90;;;;;;5030714;28;20032;-89
2021/12/01 14:03:01;;;;;;;;;;;7.80;99.90;;;;;;5050127;28;19920;-87
2021/12/01 14:05:28;;;;;;;;;;;7.80;99.90;;;;;;5053489;28;19921;-84
2021/12/01 14:08:04;;;;;;;;;;;7.80;99.90;;;;;;5054193;28;19936;-86
2021/12/01 14:10:43;;;;;;;;;;;7.80;99.90;;;;;;5052168;28;19920;-87
2021/12/01 14:13:09;;;;;;;;;;;7.80;99.90;;;;;;5052751;28;19919;-91
2021/12/01 14:15:39;;;;;;;;;;;7.80;99.90;;;;;;5035377;28;20316;-92
2021/12/01 14:18:05;;;;;;;;;;;7.70;99.90;;;;;;5052652;28;19955;-84
2021/12/01 14:20:31;;;;;;;;;;;7.70;99.90;;;;;;5050797;28;19916;-92
2021/12/01 14:22:57;;;;;;;;;;;7.70;99.90;;;;;;5052479;28;19913;-90
2021/12/01 14:25:23;;;;;;;;;;;7.80;99.90;;;;;;5051866;28;19909;-87
2021/12/01 14:27:50;;;;;;;;;;;7.70;99.90;;;;;;5055184;28;19994;-82
2021/12/01 14:30:17;;;;;;;;;;;7.70;99.90;;;;;;5054060;28;20189;-90
2021/12/01 14:32:45;;;;;;;;;;;7.70;99.90;;;;;;5036817;28;19912;-93
2021/12/01 14:35:11;;;;;;;;;;;7.70;99.90;;;;;;5036689;28;20030;-88